sensor_id;sensor_type;location;lat;lon;timestamp;temperature;humidity
43227;DHT22;28839;52.404;9.808;2023-04-15T00:03:59;6.60;99.90
43227;DHT22;28839;52.404;9.808;2023-04-15T00:10:53;6.60;99.90
43227;DHT22;28839;52.404;9.808;2023-04-15T00:17:49;6.50;99.90
43227;DHT22;28839;52.404;9.808;2023-04-15T00:24:44;6.50;99.90
43227;DHT22;28839;52.404;9.808;2023-04-15T00:31:38;6.60;99.90
43227;DHT22;28839;52.404;9.808;2023-04-15T00:38:32;6.60;99.90
43227;DHT22;28839;52.404;9.808;2023-04-15T00:45:27;6.70;99.90
43227;DHT22;28839;52.404;9.808;2023-04-15T00:52:21;6.70;99.90
43227;DHT22;28839;52.404;9.808;2023-04-15T00:59:16;6.70;99.90
43227;DHT22;28839;52.404;9.808;2023-04-15T01:06:13;6.80;99.90
43227;DHT22;28839;52.404;9.808;2023-04-15T01:13:06;6.70;99.90
43227;DHT22;28839;52.404;9.808;2023-04-15T01:20:00;6.70;99.90
43227;DHT22;28839;52.404;9.808;2023-04-15T01:26:56;6.80;99.90
43227;DHT22;28839;52.404;9.808;2023-04-15T01:33:49;6.70;99.90
43227;DHT22;28839;52.404;9.808;2023-04-15T01:40:44;6.80;99.90
43227;DHT22;28839;52.404;9.808;2023-04-15T01:47:39;6.80;99.90
43227;DHT22;28839;52.404;9.808;2023-04-15T01:54:33;6.80;99.90
43227;DHT22;28839;52.404;9.808;2023-04-15T02:01:27;6.80;99.90
43227;DHT22;28839;52.404;9.808;2023-04-15T02:08:22;6.80;99.90
43227;DHT22;28839;52.404;9.808;2023-04-15T02:15:16;6.80;99.90
43227;DHT22;28839;52.404;9.808;2023-04-15T02:22:09;6.90;99.90
43227;DHT22;28839;52.404;9.808;2023-04-15T02:29:11;6.90;99.90
43227;DHT22;28839;52.404;9.808;2023-04-15T02:36:05;6.90;99.90
43227;DHT22;28839;52.404;9.808;2023-04-15T02:42:59;6.90;99.90
43227;DHT22;28839;52.404;9.808;2023-04-15T02:49:54;6.90;99.90
43227;DHT22;28839;52.404;9.808;2023-04-15T02:56:50;6.90;99.90
43227;DHT22;28839;52.404;9.808;2023-04-15T03:03:46;7.00;99.90
43227;DHT22;28839;52.404;9.808;2023-04-15T03:10:41;7.00;99.90
43227;DHT22;28839;52.404;9.808;2023-04-15T03:17:35;6.90;99.90
43227;DHT22;28839;52.404;9.808;2023-04-15T03:24:29;6.90;99.90
43227;DHT22;28839;52.404;9.808;2023-04-15T03:31:24;6.90;99.90
43227;DHT22;28839;52.404;9.808;2023-04-15T03:38:18;6.90;99.90
43227;DHT22;28839;52.404;9.808;2023-04-15T03:45:12;6.80;99.90
43227;DHT22;28839;52.404;9.808;2023-04-15T03:52:07;6.80;99.90
43227;DHT22;28839;52.404;9.808;2023-04-15T03:59:01;6.80;99.90
43227;DHT22;28839;52.404;9.808;2023-04-15T04:05:55;6.70;99.90
43227;DHT22;28839;52.404;9.808;2023-04-15T04:12:50;6.80;99.90
43227;DHT22;28839;52.404;9.808;2023-04-15T04:19:44;6.70;99.90
43227;DHT22;28839;52.404;9.808;2023-04-15T04:26:37;6.70;99.90
43227;DHT22;28839;52.404;9.808;2023-04-15T04:33:33;6.70;99.90
43227;DHT22;28839;52.404;9.808;2023-04-15T04:40:26;6.60;99.90
43227;DHT22;28839;52.404;9.808;2023-04-15T04:47:20;6.70;99.90
43227;DHT22;28839;52.404;9.808;2023-04-15T04:54:15;6.60;99.90
43227;DHT22;28839;52.404;9.808;2023-04-15T05:01:09;6.60;99.90
43227;DHT22;28839;52.404;9.808;2023-04-15T05:08:04;6.60;99.90
43227;DHT22;28839;52.404;9.808;2023-04-15T05:14:59;6.60;99.90
43227;DHT22;28839;52.404;9.808;2023-04-15T05:21:53;6.60;99.90
43227;DHT22;28839;52.404;9.808;2023-04-15T05:28:47;6.60;99.90
43227;DHT22;28839;52.404;9.808;2023-04-15T05:35:42;6.60;99.90
43227;DHT22;28839;52.404;9.808;2023-04-15T05:42:36;6.70;99.90
43227;DHT22;28839;52.404;9.808;2023-04-15T05:49:30;6.60;99.90
43227;DHT22;28839;52.404;9.808;2023-04-15T05:56:25;6.60;99.90
43227;DHT22;28839;52.404;9.808;2023-04-15T06:03:19;6.70;99.90
43227;DHT22;28839;52.404;9.808;2023-04-15T06:10:13;6.70;99.90
43227;DHT22;28839;52.404;9.808;2023-04-15T06:17:08;6.70;99.90
43227;DHT22;28839;52.404;9.808;2023-04-15T06:24:02;6.70;99.90
43227;DHT22;28839;52.404;9.808;2023-04-15T06:30:56;6.70;99.90
43227;DHT22;28839;52.404;9.808;2023-04-15T06:37:51;6.70;99.90
43227;DHT22;28839;52.404;9.808;2023-04-15T06:44:45;6.80;99.90
43227;DHT22;28839;52.404;9.808;2023-04-15T06:51:39;6.80;99.90
43227;DHT22;28839;52.404;9.808;2023-04-15T06:58:34;6.80;99.90
43227;DHT22;28839;52.404;9.808;2023-04-15T07:05:28;6.80;99.90
43227;DHT22;28839;52.404;9.808;2023-04-15T07:12:22;6.90;99.90
43227;DHT22;28839;52.404;9.808;2023-04-15T07:19:17;7.00;99.90
43227;DHT22;28839;52.404;9.808;2023-04-15T07:26:11;7.00;99.90
43227;DHT22;28839;52.404;9.808;2023-04-15T07:33:05;7.00;99.90
43227;DHT22;28839;52.404;9.808;2023-04-15T07:40:00;7.10;99.90
43227;DHT22;28839;52.404;9.808;2023-04-15T07:46:56;7.10;99.90
43227;DHT22;28839;52.404;9.808;2023-04-15T07:53:50;7.20;99.90
43227;DHT22;28839;52.404;9.808;2023-04-15T08:00:45;7.30;99.90
43227;DHT22;28839;52.404;9.808;2023-04-15T08:07:40;7.30;99.90
43227;DHT22;28839;52.404;9.808;2023-04-15T08:14:34;7.30;99.90
43227;DHT22;28839;52.404;9.808;2023-04-15T08:21:29;7.30;99.90
43227;DHT22;28839;52.404;9.808;2023-04-15T08:28:23;7.40;99.90
43227;DHT22;28839;52.404;9.808;2023-04-15T08:35:17;7.40;99.90
43227;DHT22;28839;52.404;9.808;2023-04-15T08:42:16;7.50;99.90
43227;DHT22;28839;52.404;9.808;2023-04-15T08:49:11;7.50;99.90
43227;DHT22;28839;52.404;9.808;2023-04-15T08:56:06;7.60;99.90
43227;DHT22;28839;52.404;9.808;2023-04-15T09:03:03;7.60;99.90
43227;DHT22;28839;52.404;9.808;2023-04-15T09:09:58;7.60;99.90
43227;DHT22;28839;52.404;9.808;2023-04-15T09:16:59;7.80;99.90
43227;DHT22;28839;52.404;9.808;2023-04-15T09:23:56;7.90;99.90
43227;DHT22;28839;52.404;9.808;2023-04-15T09:30:51;7.90;99.90
43227;DHT22;28839;52.404;9.808;2023-04-15T09:38:06;7.80;99.90
43227;DHT22;28839;52.404;9.808;2023-04-15T09:45:10;8.00;99.90
43227;DHT22;28839;52.404;9.808;2023-04-15T09:52:04;8.00;99.90
43227;DHT22;28839;52.404;9.808;2023-04-15T09:58:57;8.10;99.90
43227;DHT22;28839;52.404;9.808;2023-04-15T10:05:54;8.20;99.90
43227;DHT22;28839;52.404;9.808;2023-04-15T10:12:49;8.20;99.90
43227;DHT22;28839;52.404;9.808;2023-04-15T10:19:45;8.30;99.90
43227;DHT22;28839;52.404;9.808;2023-04-15T10:26:40;8.40;99.90
43227;DHT22;28839;52.404;9.808;2023-04-15T10:33:35;8.40;99.90
43227;DHT22;28839;52.404;9.808;2023-04-15T10:40:31;8.40;99.90
43227;DHT22;28839;52.404;9.808;2023-04-15T10:47:27;8.40;99.90
43227;DHT22;28839;52.404;9.808;2023-04-15T10:54:31;8.50;99.90
43227;DHT22;28839;52.404;9.808;2023-04-15T11:01:49;8.70;99.90
43227;DHT22;28839;52.404;9.808;2023-04-15T11:08:55;8.80;99.90
43227;DHT22;28839;52.404;9.808;2023-04-15T11:15:51;8.80;99.90
43227;DHT22;28839;52.404;9.808;2023-04-15T11:22:49;8.80;99.90
43227;DHT22;28839;52.404;9.808;2023-04-15T11:29:45;8.80;99.90
43227;DHT22;28839;52.404;9.808;2023-04-15T11:36:42;8.90;99.90
43227;DHT22;28839;52.404;9.808;2023-04-15T11:43:36;8.90;99.90
43227;DHT22;28839;52.404;9.808;2023-04-15T11:50:31;9.00;99.90
43227;DHT22;28839;52.404;9.808;2023-04-15T11:57:30;9.00;99.90
43227;DHT22;28839;52.404;9.808;2023-04-15T12:04:24;9.10;99.90
43227;DHT22;28839;52.404;9.808;2023-04-15T12:11:20;9.10;99.90
43227;DHT22;28839;52.404;9.808;2023-04-15T12:18:18;9.20;99.90
43227;DHT22;28839;52.404;9.808;2023-04-15T12:25:12;9.20;99.90
43227;DHT22;28839;52.404;9.808;2023-04-15T12:32:09;9.30;99.90
43227;DHT22;28839;52.404;9.808;2023-04-15T12:39:03;9.30;99.90
43227;DHT22;28839;52.404;9.808;2023-04-15T12:45:58;9.40;99.90
43227;DHT22;28839;52.404;9.808;2023-04-15T12:52:53;9.50;99.90
43227;DHT22;28839;52.404;9.808;2023-04-15T12:59:47;9.50;99.90
43227;DHT22;28839;52.404;9.808;2023-04-15T13:06:42;9.60;99.90
43227;DHT22;28839;52.404;9.808;2023-04-15T13:13:37;9.70;99.90
43227;DHT22;28839;52.404;9.808;2023-04-15T13:20:31;9.80;99.90
43227;DHT22;28839;52.404;9.808;2023-04-15T13:27:25;10.00;99.90
43227;DHT22;28839;52.404;9.808;2023-04-15T13:34:20;10.20;99.90
43227;DHT22;28839;52.404;9.808;2023-04-15T13:41:14;10.60;99.90
43227;DHT22;28839;52.404;9.808;2023-04-15T13:48:08;11.10;99.90
43227;DHT22;28839;52.404;9.808;2023-04-15T13:55:04;11.50;99.90
43227;DHT22;28839;52.404;9.808;2023-04-15T14:01:58;11.90;99.90
43227;DHT22;28839;52.404;9.808;2023-04-15T14:08:52;12.20;99.90
43227;DHT22;28839;52.404;9.808;2023-04-15T14:15:47;12.30;99.90
43227;DHT22;28839;52.404;9.808;2023-04-15T14:22:41;12.60;99.90
43227;DHT22;28839;52.404;9.808;2023-04-15T14:29:35;12.40;99.90
43227;DHT22;28839;52.404;9.808;2023-04-15T14:36:30;12.60;99.90
43227;DHT22;28839;52.404;9.808;2023-04-15T14:43:25;12.70;99.90
43227;DHT22;28839;52.404;9.808;2023-04-15T14:50:18;12.80;99.90
43227;DHT22;28839;52.404;9.808;2023-04-15T14:57:14;13.10;99.90
43227;DHT22;28839;52.404;9.808;2023-04-15T15:04:09;13.00;99.90
43227;DHT22;28839;52.404;9.808;2023-04-15T15:11:03;13.20;99.90
43227;DHT22;28839;52.404;9.808;2023-04-15T15:17:58;13.20;99.90
43227;DHT22;28839;52.404;9.808;2023-04-15T15:24:52;12.90;99.90
43227;DHT22;28839;52.404;9.808;2023-04-15T15:31:46;12.90;99.90
43227;DHT22;28839;52.404;9.808;2023-04-15T15:38:41;13.00;99.90
43227;DHT22;28839;52.404;9.808;2023-04-15T15:45:35;13.10;99.90
43227;DHT22;28839;52.404;9.808;2023-04-15T15:52:29;13.00;99.90
43227;DHT22;28839;52.404;9.808;2023-04-15T15:59:24;12.80;99.90
43227;DHT22;28839;52.404;9.808;2023-04-15T16:06:18;12.90;99.90
43227;DHT22;28839;52.404;9.808;2023-04-15T16:13:12;13.00;99.90
43227;DHT22;28839;52.404;9.808;2023-04-15T16:20:08;13.20;99.90
43227;DHT22;28839;52.404;9.808;2023-04-15T16:27:02;13.20;99.90
43227;DHT22;28839;52.404;9.808;2023-04-15T16:33:56;13.00;99.90
43227;DHT22;28839;52.404;9.808;2023-04-15T16:40:51;12.70;99.90
43227;DHT22;28839;52.404;9.808;2023-04-15T16:47:45;12.40;99.90
43227;DHT22;28839;52.404;9.808;2023-04-15T16:54:39;12.30;99.90
43227;DHT22;28839;52.404;9.808;2023-04-15T17:01:34;12.10;99.90
43227;DHT22;28839;52.404;9.808;2023-04-15T17:08:28;12.20;99.90
43227;DHT22;28839;52.404;9.808;2023-04-15T17:15:22;12.10;99.90
43227;DHT22;28839;52.404;9.808;2023-04-15T17:22:17;12.30;99.90
43227;DHT22;28839;52.404;9.808;2023-04-15T17:29:11;12.30;99.90
43227;DHT22;28839;52.404;9.808;2023-04-15T17:36:05;12.20;99.90
43227;DHT22;28839;52.404;9.808;2023-04-15T17:43:00;12.30;99.90
43227;DHT22;28839;52.404;9.808;2023-04-15T17:49:54;12.10;99.90
43227;DHT22;28839;52.404;9.808;2023-04-15T17:56:48;12.00;99.90
43227;DHT22;28839;52.404;9.808;2023-04-15T18:03:43;11.90;99.90
43227;DHT22;28839;52.404;9.808;2023-04-15T18:10:37;11.90;99.90
43227;DHT22;28839;52.404;9.808;2023-04-15T18:17:32;11.80;99.90
43227;DHT22;28839;52.404;9.808;2023-04-15T18:24:27;11.70;99.90
43227;DHT22;28839;52.404;9.808;2023-04-15T18:31:21;11.70;99.90
43227;DHT22;28839;52.404;9.808;2023-04-15T18:38:15;11.60;99.90
43227;DHT22;28839;52.404;9.808;2023-04-15T18:45:10;11.50;99.90
43227;DHT22;28839;52.404;9.808;2023-04-15T18:52:04;11.40;99.90
43227;DHT22;28839;52.404;9.808;2023-04-15T18:58:58;11.50;99.90
43227;DHT22;28839;52.404;9.808;2023-04-15T19:05:53;11.50;99.90
43227;DHT22;28839;52.404;9.808;2023-04-15T19:12:48;11.40;99.90
43227;DHT22;28839;52.404;9.808;2023-04-15T19:19:42;11.30;99.90
43227;DHT22;28839;52.404;9.808;2023-04-15T19:26:37;11.30;99.90
43227;DHT22;28839;52.404;9.808;2023-04-15T19:33:31;11.30;99.90
43227;DHT22;28839;52.404;9.808;2023-04-15T19:40:25;11.20;99.90
43227;DHT22;28839;52.404;9.808;2023-04-15T19:47:20;11.20;99.90
43227;DHT22;28839;52.404;9.808;2023-04-15T19:54:14;11.10;99.90
43227;DHT22;28839;52.404;9.808;2023-04-15T20:01:08;11.10;99.90
43227;DHT22;28839;52.404;9.808;2023-04-15T20:08:03;11.10;99.90
43227;DHT22;28839;52.404;9.808;2023-04-15T20:14:57;11.00;99.90
43227;DHT22;28839;52.404;9.808;2023-04-15T20:21:51;11.00;99.90
43227;DHT22;28839;52.404;9.808;2023-04-15T20:28:47;11.00;99.90
43227;DHT22;28839;52.404;9.808;2023-04-15T20:35:41;10.90;99.90
43227;DHT22;28839;52.404;9.808;2023-04-15T20:42:34;10.80;99.90
43227;DHT22;28839;52.404;9.808;2023-04-15T20:49:32;10.80;99.90
43227;DHT22;28839;52.404;9.808;2023-04-15T20:56:25;10.70;99.90
43227;DHT22;28839;52.404;9.808;2023-04-15T21:03:19;10.60;99.90
43227;DHT22;28839;52.404;9.808;2023-04-15T21:10:15;10.40;99.90
43227;DHT22;28839;52.404;9.808;2023-04-15T21:17:08;10.30;99.90
43227;DHT22;28839;52.404;9.808;2023-04-15T21:24:02;10.20;99.90
43227;DHT22;28839;52.404;9.808;2023-04-15T21:30:59;10.10;99.90
43227;DHT22;28839;52.404;9.808;2023-04-15T21:37:53;10.00;99.90
43227;DHT22;28839;52.404;9.808;2023-04-15T21:44:47;9.90;99.90
43227;DHT22;28839;52.404;9.808;2023-04-15T21:51:42;9.80;99.90
43227;DHT22;28839;52.404;9.808;2023-04-15T21:58:37;9.70;99.90
43227;DHT22;28839;52.404;9.808;2023-04-15T22:05:30;9.60;99.90
43227;DHT22;28839;52.404;9.808;2023-04-15T22:12:26;9.60;99.90
43227;DHT22;28839;52.404;9.808;2023-04-15T22:19:19;9.50;99.90
43227;DHT22;28839;52.404;9.808;2023-04-15T22:26:13;9.50;99.90
43227;DHT22;28839;52.404;9.808;2023-04-15T22:33:09;9.40;99.90
43227;DHT22;28839;52.404;9.808;2023-04-15T22:40:03;9.40;99.90
43227;DHT22;28839;52.404;9.808;2023-04-15T22:46:57;9.40;99.90
43227;DHT22;28839;52.404;9.808;2023-04-15T22:53:52;9.30;99.90
43227;DHT22;28839;52.404;9.808;2023-04-15T23:00:46;9.30;99.90
43227;DHT22;28839;52.404;9.808;2023-04-15T23:07:41;9.30;99.90
43227;DHT22;28839;52.404;9.808;2023-04-15T23:14:36;9.30;99.90
43227;DHT22;28839;52.404;9.808;2023-04-15T23:21:30;9.30;99.90
43227;DHT22;28839;52.404;9.808;2023-04-15T23:28:23;9.20;99.90
43227;DHT22;28839;52.404;9.808;2023-04-15T23:35:19;9.20;99.90
43227;DHT22;28839;52.404;9.808;2023-04-15T23:42:12;9.20;99.90
43227;DHT22;28839;52.404;9.808;2023-04-15T23:49:06;9.20;99.90
43227;DHT22;28839;52.404;9.808;2023-04-15T23:56:01;9.10;99.90
